sensor_id;sensor_type;location;lat;lon;timestamp;P1;durP1;ratioP1;P2;durP2;ratioP2
76695;SDS011;74676;44.562;0.086;2023-12-20T00:04:08;46.67;;;19.87;;
76695;SDS011;74676;44.562;0.086;2023-12-20T00:09:42;45.43;;;24.87;;
76695;SDS011;74676;44.562;0.086;2023-12-20T00:15:14;38.67;;;21.17;;
76695;SDS011;74676;44.562;0.086;2023-12-20T00:20:47;41.40;;;19.97;;
76695;SDS011;74676;44.562;0.086;2023-12-20T00:26:20;34.80;;;19.60;;
76695;SDS011;74676;44.562;0.086;2023-12-20T00:31:52;33.33;;;19.57;;
76695;SDS011;74676;44.562;0.086;2023-12-20T00:37:25;32.97;;;16.43;;
76695;SDS011;74676;44.562;0.086;2023-12-20T00:42:58;37.83;;;17.00;;
76695;SDS011;74676;44.562;0.086;2023-12-20T00:48:30;29.00;;;15.97;;
76695;SDS011;74676;44.562;0.086;2023-12-20T00:54:03;36.70;;;14.37;;
76695;SDS011;74676;44.562;0.086;2023-12-20T00:59:36;28.60;;;13.40;;
76695;SDS011;74676;44.562;0.086;2023-12-20T01:05:10;21.80;;;13.67;;
76695;SDS011;74676;44.562;0.086;2023-12-20T01:10:44;30.30;;;13.60;;
76695;SDS011;74676;44.562;0.086;2023-12-20T01:16:17;16.90;;;10.97;;
76695;SDS011;74676;44.562;0.086;2023-12-20T01:21:50;15.30;;;9.37;;
76695;SDS011;74676;44.562;0.086;2023-12-20T01:27:23;19.47;;;8.67;;
76695;SDS011;74676;44.562;0.086;2023-12-20T01:32:58;15.77;;;8.13;;
76695;SDS011;74676;44.562;0.086;2023-12-20T01:38:31;24.03;;;8.77;;
76695;SDS011;74676;44.562;0.086;2023-12-20T01:44:04;24.27;;;9.97;;
76695;SDS011;74676;44.562;0.086;2023-12-20T01:49:37;11.67;;;6.97;;
76695;SDS011;74676;44.562;0.086;2023-12-20T01:55:09;10.90;;;7.13;;
76695;SDS011;74676;44.562;0.086;2023-12-20T02:00:41;14.23;;;9.43;;
76695;SDS011;74676;44.562;0.086;2023-12-20T02:06:15;7.57;;;5.43;;
76695;SDS011;74676;44.562;0.086;2023-12-20T02:11:47;9.50;;;5.53;;
76695;SDS011;74676;44.562;0.086;2023-12-20T02:17:20;6.03;;;4.77;;
76695;SDS011;74676;44.562;0.086;2023-12-20T02:22:53;3.20;;;2.57;;
76695;SDS011;74676;44.562;0.086;2023-12-20T02:28:26;9.07;;;5.20;;
76695;SDS011;74676;44.562;0.086;2023-12-20T02:33:58;5.27;;;3.57;;
76695;SDS011;74676;44.562;0.086;2023-12-20T02:45:07;6.57;;;5.10;;
76695;SDS011;74676;44.562;0.086;2023-12-20T02:50:39;9.77;;;6.00;;
76695;SDS011;74676;44.562;0.086;2023-12-20T02:56:13;24.93;;;12.37;;
76695;SDS011;74676;44.562;0.086;2023-12-20T03:01:47;12.40;;;6.93;;
76695;SDS011;74676;44.562;0.086;2023-12-20T03:07:21;10.67;;;7.23;;
76695;SDS011;74676;44.562;0.086;2023-12-20T03:12:55;16.37;;;7.90;;
76695;SDS011;74676;44.562;0.086;2023-12-20T03:18:27;18.00;;;7.47;;
76695;SDS011;74676;44.562;0.086;2023-12-20T03:24:00;25.50;;;11.10;;
76695;SDS011;74676;44.562;0.086;2023-12-20T03:29:33;10.37;;;4.90;;
76695;SDS011;74676;44.562;0.086;2023-12-20T03:35:07;13.50;;;6.13;;
76695;SDS011;74676;44.562;0.086;2023-12-20T03:40:41;10.33;;;6.70;;
76695;SDS011;74676;44.562;0.086;2023-12-20T03:46:14;16.30;;;9.30;;
76695;SDS011;74676;44.562;0.086;2023-12-20T03:51:48;5.70;;;4.13;;
76695;SDS011;74676;44.562;0.086;2023-12-20T03:57:21;3.53;;;2.20;;
76695;SDS011;74676;44.562;0.086;2023-12-20T04:02:55;1.57;;;1.43;;
76695;SDS011;74676;44.562;0.086;2023-12-20T04:08:27;1.57;;;1.10;;
76695;SDS011;74676;44.562;0.086;2023-12-20T04:14:00;1.00;;;1.00;;
76695;SDS011;74676;44.562;0.086;2023-12-20T04:19:34;0.80;;;0.80;;
76695;SDS011;74676;44.562;0.086;2023-12-20T04:25:08;0.80;;;0.70;;
76695;SDS011;74676;44.562;0.086;2023-12-20T04:30:41;0.70;;;0.70;;
76695;SDS011;74676;44.562;0.086;2023-12-20T04:36:15;0.60;;;0.60;;
76695;SDS011;74676;44.562;0.086;2023-12-20T04:41:47;0.83;;;0.70;;
76695;SDS011;74676;44.562;0.086;2023-12-20T04:47:21;2.40;;;1.03;;
76695;SDS011;74676;44.562;0.086;2023-12-20T04:52:55;1.47;;;1.10;;
76695;SDS011;74676;44.562;0.086;2023-12-20T04:58:27;1.70;;;1.50;;
76695;SDS011;74676;44.562;0.086;2023-12-20T05:03:59;1.77;;;1.63;;
76695;SDS011;74676;44.562;0.086;2023-12-20T05:09:33;6.60;;;1.00;;
76695;SDS011;74676;44.562;0.086;2023-12-20T05:15:06;1.53;;;1.30;;
76695;SDS011;74676;44.562;0.086;2023-12-20T05:20:38;6.10;;;1.60;;
76695;SDS011;74676;44.562;0.086;2023-12-20T05:26:11;2.43;;;1.40;;
76695;SDS011;74676;44.562;0.086;2023-12-20T05:31:43;4.37;;;1.50;;
76695;SDS011;74676;44.562;0.086;2023-12-20T05:37:16;2.33;;;1.20;;
76695;SDS011;74676;44.562;0.086;2023-12-20T05:42:50;2.83;;;1.20;;
76695;SDS011;74676;44.562;0.086;2023-12-20T05:48:24;7.17;;;1.40;;
76695;SDS011;74676;44.562;0.086;2023-12-20T05:53:56;5.27;;;1.83;;
76695;SDS011;74676;44.562;0.086;2023-12-20T05:59:30;5.97;;;1.87;;
76695;SDS011;74676;44.562;0.086;2023-12-20T06:05:04;6.57;;;1.77;;
76695;SDS011;74676;44.562;0.086;2023-12-20T06:10:36;5.33;;;1.63;;
76695;SDS011;74676;44.562;0.086;2023-12-20T06:16:09;4.13;;;1.13;;
76695;SDS011;74676;44.562;0.086;2023-12-20T06:21:42;6.63;;;1.63;;
76695;SDS011;74676;44.562;0.086;2023-12-20T06:27:15;4.33;;;1.50;;
76695;SDS011;74676;44.562;0.086;2023-12-20T06:32:49;11.27;;;2.33;;
76695;SDS011;74676;44.562;0.086;2023-12-20T06:38:23;11.13;;;2.13;;
76695;SDS011;74676;44.562;0.086;2023-12-20T06:43:56;5.60;;;1.53;;
76695;SDS011;74676;44.562;0.086;2023-12-20T06:49:29;5.50;;;1.10;;
76695;SDS011;74676;44.562;0.086;2023-12-20T06:55:02;6.40;;;1.23;;
76695;SDS011;74676;44.562;0.086;2023-12-20T07:00:35;2.40;;;1.00;;
76695;SDS011;74676;44.562;0.086;2023-12-20T07:06:09;4.40;;;0.90;;
76695;SDS011;74676;44.562;0.086;2023-12-20T07:11:41;6.03;;;1.70;;
76695;SDS011;74676;44.562;0.086;2023-12-20T07:17:15;12.37;;;1.97;;
76695;SDS011;74676;44.562;0.086;2023-12-20T07:22:47;10.60;;;1.73;;
76695;SDS011;74676;44.562;0.086;2023-12-20T07:28:21;14.50;;;2.03;;
76695;SDS011;74676;44.562;0.086;2023-12-20T07:33:53;12.93;;;2.00;;
76695;SDS011;74676;44.562;0.086;2023-12-20T07:39:27;9.33;;;1.30;;
76695;SDS011;74676;44.562;0.086;2023-12-20T07:44:59;10.80;;;2.43;;
76695;SDS011;74676;44.562;0.086;2023-12-20T07:50:33;8.80;;;1.53;;
76695;SDS011;74676;44.562;0.086;2023-12-20T07:56:13;19.33;;;1.70;;
76695;SDS011;74676;44.562;0.086;2023-12-20T08:01:37;10.80;;;1.80;;
76695;SDS011;74676;44.562;0.086;2023-12-20T08:07:10;14.47;;;2.10;;
76695;SDS011;74676;44.562;0.086;2023-12-20T08:12:42;14.20;;;1.53;;
76695;SDS011;74676;44.562;0.086;2023-12-20T08:18:16;5.87;;;1.20;;
76695;SDS011;74676;44.562;0.086;2023-12-20T08:23:49;2.33;;;1.30;;
76695;SDS011;74676;44.562;0.086;2023-12-20T08:29:22;9.33;;;1.43;;
76695;SDS011;74676;44.562;0.086;2023-12-20T08:34:55;19.20;;;1.53;;
76695;SDS011;74676;44.562;0.086;2023-12-20T08:40:28;14.03;;;1.67;;
76695;SDS011;74676;44.562;0.086;2023-12-20T08:46:01;10.33;;;1.30;;
76695;SDS011;74676;44.562;0.086;2023-12-20T08:51:33;5.87;;;1.30;;
76695;SDS011;74676;44.562;0.086;2023-12-20T08:57:06;10.90;;;1.57;;
76695;SDS011;74676;44.562;0.086;2023-12-20T09:02:39;12.80;;;1.50;;
76695;SDS011;74676;44.562;0.086;2023-12-20T09:08:11;12.00;;;2.00;;
76695;SDS011;74676;44.562;0.086;2023-12-20T09:13:46;10.17;;;1.50;;
76695;SDS011;74676;44.562;0.086;2023-12-20T09:19:19;6.93;;;1.40;;
76695;SDS011;74676;44.562;0.086;2023-12-20T09:24:53;20.03;;;2.30;;
76695;SDS011;74676;44.562;0.086;2023-12-20T09:30:25;18.73;;;2.63;;
76695;SDS011;74676;44.562;0.086;2023-12-20T09:35:58;11.77;;;1.87;;
76695;SDS011;74676;44.562;0.086;2023-12-20T09:41:31;9.27;;;1.90;;
76695;SDS011;74676;44.562;0.086;2023-12-20T09:47:03;17.43;;;2.00;;
76695;SDS011;74676;44.562;0.086;2023-12-20T09:52:36;9.47;;;1.90;;
76695;SDS011;74676;44.562;0.086;2023-12-20T09:58:09;11.13;;;1.80;;
76695;SDS011;74676;44.562;0.086;2023-12-20T10:03:42;7.57;;;1.20;;
76695;SDS011;74676;44.562;0.086;2023-12-20T10:09:14;8.67;;;2.10;;
76695;SDS011;74676;44.562;0.086;2023-12-20T10:14:47;14.40;;;2.73;;
76695;SDS011;74676;44.562;0.086;2023-12-20T10:20:21;8.80;;;1.13;;
76695;SDS011;74676;44.562;0.086;2023-12-20T10:25:56;9.20;;;2.10;;
76695;SDS011;74676;44.562;0.086;2023-12-20T10:31:29;17.90;;;2.63;;
76695;SDS011;74676;44.562;0.086;2023-12-20T10:37:02;16.87;;;2.03;;
76695;SDS011;74676;44.562;0.086;2023-12-20T10:42:35;17.63;;;1.97;;
76695;SDS011;74676;44.562;0.086;2023-12-20T10:48:09;7.70;;;1.37;;
76695;SDS011;74676;44.562;0.086;2023-12-20T10:53:42;9.20;;;1.37;;
76695;SDS011;74676;44.562;0.086;2023-12-20T10:59:16;7.37;;;1.60;;
76695;SDS011;74676;44.562;0.086;2023-12-20T11:04:50;3.57;;;1.10;;
76695;SDS011;74676;44.562;0.086;2023-12-20T11:10:25;10.97;;;2.10;;
76695;SDS011;74676;44.562;0.086;2023-12-20T11:15:55;12.33;;;1.67;;
76695;SDS011;74676;44.562;0.086;2023-12-20T11:21:28;9.27;;;1.60;;
76695;SDS011;74676;44.562;0.086;2023-12-20T11:27:02;9.23;;;1.30;;
76695;SDS011;74676;44.562;0.086;2023-12-20T11:32:34;8.87;;;1.83;;
76695;SDS011;74676;44.562;0.086;2023-12-20T11:38:07;11.17;;;1.57;;
76695;SDS011;74676;44.562;0.086;2023-12-20T11:43:39;8.87;;;1.37;;
76695;SDS011;74676;44.562;0.086;2023-12-20T11:49:12;5.27;;;1.13;;
76695;SDS011;74676;44.562;0.086;2023-12-20T11:54:44;7.10;;;1.83;;
76695;SDS011;74676;44.562;0.086;2023-12-20T12:00:18;7.87;;;1.70;;
76695;SDS011;74676;44.562;0.086;2023-12-20T12:05:51;7.20;;;1.97;;
76695;SDS011;74676;44.562;0.086;2023-12-20T12:11:24;5.77;;;1.80;;
76695;SDS011;74676;44.562;0.086;2023-12-20T12:16:56;9.27;;;2.13;;
76695;SDS011;74676;44.562;0.086;2023-12-20T12:22:28;9.40;;;2.30;;
76695;SDS011;74676;44.562;0.086;2023-12-20T12:28:01;5.97;;;1.83;;
76695;SDS011;74676;44.562;0.086;2023-12-20T12:33:33;7.23;;;1.50;;
76695;SDS011;74676;44.562;0.086;2023-12-20T12:39:07;8.70;;;1.40;;
76695;SDS011;74676;44.562;0.086;2023-12-20T12:44:41;4.80;;;1.23;;
76695;SDS011;74676;44.562;0.086;2023-12-20T12:50:14;9.50;;;1.47;;
76695;SDS011;74676;44.562;0.086;2023-12-20T12:55:48;6.30;;;2.23;;
76695;SDS011;74676;44.562;0.086;2023-12-20T13:01:21;8.23;;;1.40;;
76695;SDS011;74676;44.562;0.086;2023-12-20T13:06:54;6.87;;;1.20;;
76695;SDS011;74676;44.562;0.086;2023-12-20T13:12:27;5.50;;;1.20;;
76695;SDS011;74676;44.562;0.086;2023-12-20T13:18:00;4.33;;;0.90;;
76695;SDS011;74676;44.562;0.086;2023-12-20T13:23:34;3.13;;;0.90;;
76695;SDS011;74676;44.562;0.086;2023-12-20T13:29:06;5.07;;;1.43;;
76695;SDS011;74676;44.562;0.086;2023-12-20T13:34:39;6.50;;;0.67;;
76695;SDS011;74676;44.562;0.086;2023-12-20T13:40:10;11.80;;;2.20;;
76695;SDS011;74676;44.562;0.086;2023-12-20T13:45:43;7.47;;;1.03;;
76695;SDS011;74676;44.562;0.086;2023-12-20T13:51:16;9.37;;;1.17;;
76695;SDS011;74676;44.562;0.086;2023-12-20T13:56:50;12.73;;;1.73;;
76695;SDS011;74676;44.562;0.086;2023-12-20T14:02:23;6.83;;;1.40;;
76695;SDS011;74676;44.562;0.086;2023-12-20T14:07:55;5.93;;;1.27;;
76695;SDS011;74676;44.562;0.086;2023-12-20T14:13:27;8.70;;;2.20;;
76695;SDS011;74676;44.562;0.086;2023-12-20T14:19:00;8.43;;;1.77;;
76695;SDS011;74676;44.562;0.086;2023-12-20T14:24:33;16.87;;;3.00;;
76695;SDS011;74676;44.562;0.086;2023-12-20T14:30:07;12.43;;;2.50;;
76695;SDS011;74676;44.562;0.086;2023-12-20T14:35:40;6.33;;;2.30;;
76695;SDS011;74676;44.562;0.086;2023-12-20T14:41:13;6.93;;;1.30;;
76695;SDS011;74676;44.562;0.086;2023-12-20T14:46:47;5.33;;;1.97;;
76695;SDS011;74676;44.562;0.086;2023-12-20T14:52:20;5.70;;;1.47;;
76695;SDS011;74676;44.562;0.086;2023-12-20T14:57:52;7.13;;;2.17;;
76695;SDS011;74676;44.562;0.086;2023-12-20T15:03:25;5.40;;;1.30;;
76695;SDS011;74676;44.562;0.086;2023-12-20T15:08:57;7.43;;;0.90;;
76695;SDS011;74676;44.562;0.086;2023-12-20T15:14:30;9.63;;;1.70;;
76695;SDS011;74676;44.562;0.086;2023-12-20T15:20:04;6.20;;;1.23;;
76695;SDS011;74676;44.562;0.086;2023-12-20T15:25:36;11.23;;;1.50;;
76695;SDS011;74676;44.562;0.086;2023-12-20T15:31:10;12.67;;;1.40;;
76695;SDS011;74676;44.562;0.086;2023-12-20T15:36:42;14.20;;;3.77;;
76695;SDS011;74676;44.562;0.086;2023-12-20T15:42:15;8.77;;;2.30;;
76695;SDS011;74676;44.562;0.086;2023-12-20T15:47:48;9.97;;;1.30;;
76695;SDS011;74676;44.562;0.086;2023-12-20T15:53:22;5.63;;;1.80;;
76695;SDS011;74676;44.562;0.086;2023-12-20T15:58:55;11.17;;;2.20;;
76695;SDS011;74676;44.562;0.086;2023-12-20T16:04:28;15.63;;;5.37;;
76695;SDS011;74676;44.562;0.086;2023-12-20T16:10:02;11.80;;;3.43;;
76695;SDS011;74676;44.562;0.086;2023-12-20T16:15:34;11.60;;;2.67;;
76695;SDS011;74676;44.562;0.086;2023-12-20T16:21:06;11.93;;;3.10;;
76695;SDS011;74676;44.562;0.086;2023-12-20T16:26:39;21.37;;;5.03;;
76695;SDS011;74676;44.562;0.086;2023-12-20T16:32:11;27.07;;;8.20;;
76695;SDS011;74676;44.562;0.086;2023-12-20T16:37:45;23.87;;;5.90;;
76695;SDS011;74676;44.562;0.086;2023-12-20T16:43:19;38.60;;;7.70;;
76695;SDS011;74676;44.562;0.086;2023-12-20T16:48:51;34.03;;;12.07;;
76695;SDS011;74676;44.562;0.086;2023-12-20T16:54:24;39.13;;;10.77;;
76695;SDS011;74676;44.562;0.086;2023-12-20T16:59:56;27.30;;;8.80;;
76695;SDS011;74676;44.562;0.086;2023-12-20T17:05:28;15.43;;;5.27;;
76695;SDS011;74676;44.562;0.086;2023-12-20T17:11:03;16.60;;;4.80;;
76695;SDS011;74676;44.562;0.086;2023-12-20T17:16:35;18.87;;;5.27;;
76695;SDS011;74676;44.562;0.086;2023-12-20T17:22:09;13.40;;;4.70;;
76695;SDS011;74676;44.562;0.086;2023-12-20T17:27:41;12.43;;;3.27;;
76695;SDS011;74676;44.562;0.086;2023-12-20T17:33:14;13.70;;;3.50;;
76695;SDS011;74676;44.562;0.086;2023-12-20T17:38:46;11.33;;;2.90;;
76695;SDS011;74676;44.562;0.086;2023-12-20T17:44:20;6.47;;;2.40;;
76695;SDS011;74676;44.562;0.086;2023-12-20T17:49:53;17.33;;;3.47;;
76695;SDS011;74676;44.562;0.086;2023-12-20T17:55:28;16.07;;;4.07;;
76695;SDS011;74676;44.562;0.086;2023-12-20T18:01:00;15.83;;;4.93;;
76695;SDS011;74676;44.562;0.086;2023-12-20T18:06:32;13.10;;;4.70;;
76695;SDS011;74676;44.562;0.086;2023-12-20T18:12:06;24.30;;;5.73;;
76695;SDS011;74676;44.562;0.086;2023-12-20T18:17:40;15.77;;;6.97;;
76695;SDS011;74676;44.562;0.086;2023-12-20T18:23:12;20.33;;;6.37;;
76695;SDS011;74676;44.562;0.086;2023-12-20T18:28:45;13.93;;;6.57;;
76695;SDS011;74676;44.562;0.086;2023-12-20T18:34:17;18.87;;;8.03;;
76695;SDS011;74676;44.562;0.086;2023-12-20T18:39:51;20.77;;;6.77;;
76695;SDS011;74676;44.562;0.086;2023-12-20T18:45:24;18.93;;;7.27;;
76695;SDS011;74676;44.562;0.086;2023-12-20T18:50:57;23.50;;;8.40;;
76695;SDS011;74676;44.562;0.086;2023-12-20T18:56:30;29.70;;;11.30;;
76695;SDS011;74676;44.562;0.086;2023-12-20T19:02:04;25.80;;;9.23;;
76695;SDS011;74676;44.562;0.086;2023-12-20T19:07:37;16.13;;;6.53;;
76695;SDS011;74676;44.562;0.086;2023-12-20T19:13:10;29.90;;;8.57;;
76695;SDS011;74676;44.562;0.086;2023-12-20T19:18:42;25.73;;;10.07;;
76695;SDS011;74676;44.562;0.086;2023-12-20T19:24:15;20.80;;;7.13;;
76695;SDS011;74676;44.562;0.086;2023-12-20T19:29:48;17.50;;;5.90;;
76695;SDS011;74676;44.562;0.086;2023-12-20T19:35:21;22.97;;;9.53;;
76695;SDS011;74676;44.562;0.086;2023-12-20T19:40:54;22.23;;;7.70;;
76695;SDS011;74676;44.562;0.086;2023-12-20T19:46:26;23.90;;;8.70;;
76695;SDS011;74676;44.562;0.086;2023-12-20T19:51:59;23.10;;;6.60;;
76695;SDS011;74676;44.562;0.086;2023-12-20T19:57:32;23.40;;;6.63;;
76695;SDS011;74676;44.562;0.086;2023-12-20T20:03:06;21.97;;;6.83;;
76695;SDS011;74676;44.562;0.086;2023-12-20T20:08:39;21.37;;;7.73;;
76695;SDS011;74676;44.562;0.086;2023-12-20T20:14:11;12.50;;;5.87;;
76695;SDS011;74676;44.562;0.086;2023-12-20T20:19:44;19.87;;;10.77;;
76695;SDS011;74676;44.562;0.086;2023-12-20T20:25:18;25.90;;;7.23;;
76695;SDS011;74676;44.562;0.086;2023-12-20T20:30:51;23.97;;;9.80;;
76695;SDS011;74676;44.562;0.086;2023-12-20T20:36:23;28.70;;;9.83;;
76695;SDS011;74676;44.562;0.086;2023-12-20T20:41:56;18.10;;;6.70;;
76695;SDS011;74676;44.562;0.086;2023-12-20T20:47:28;15.90;;;6.73;;
76695;SDS011;74676;44.562;0.086;2023-12-20T20:53:01;18.03;;;7.40;;
76695;SDS011;74676;44.562;0.086;2023-12-20T20:58:34;15.60;;;7.50;;
76695;SDS011;74676;44.562;0.086;2023-12-20T21:04:07;14.00;;;8.13;;
76695;SDS011;74676;44.562;0.086;2023-12-20T21:09:40;43.53;;;19.10;;
76695;SDS011;74676;44.562;0.086;2023-12-20T21:15:12;25.03;;;10.23;;
76695;SDS011;74676;44.562;0.086;2023-12-20T21:20:46;19.43;;;6.57;;
76695;SDS011;74676;44.562;0.086;2023-12-20T21:26:18;11.50;;;3.93;;
76695;SDS011;74676;44.562;0.086;2023-12-20T21:31:51;7.87;;;2.70;;
76695;SDS011;74676;44.562;0.086;2023-12-20T21:37:24;11.30;;;3.00;;
76695;SDS011;74676;44.562;0.086;2023-12-20T21:42:57;11.00;;;2.67;;
76695;SDS011;74676;44.562;0.086;2023-12-20T21:48:29;10.83;;;2.67;;
76695;SDS011;74676;44.562;0.086;2023-12-20T21:54:02;5.73;;;2.13;;
76695;SDS011;74676;44.562;0.086;2023-12-20T21:59:35;4.37;;;1.80;;
76695;SDS011;74676;44.562;0.086;2023-12-20T22:05:09;9.50;;;1.83;;
76695;SDS011;74676;44.562;0.086;2023-12-20T22:10:42;5.20;;;1.70;;
76695;SDS011;74676;44.562;0.086;2023-12-20T22:16:14;11.10;;;1.80;;
76695;SDS011;74676;44.562;0.086;2023-12-20T22:21:48;8.57;;;1.80;;
76695;SDS011;74676;44.562;0.086;2023-12-20T22:27:20;5.07;;;1.30;;
76695;SDS011;74676;44.562;0.086;2023-12-20T22:32:53;7.77;;;1.37;;
76695;SDS011;74676;44.562;0.086;2023-12-20T22:38:27;2.17;;;0.63;;
76695;SDS011;74676;44.562;0.086;2023-12-20T22:44:00;5.80;;;2.40;;
76695;SDS011;74676;44.562;0.086;2023-12-20T22:49:34;2.97;;;0.73;;
76695;SDS011;74676;44.562;0.086;2023-12-20T22:55:08;5.27;;;2.10;;
76695;SDS011;74676;44.562;0.086;2023-12-20T23:00:40;15.30;;;6.63;;
76695;SDS011;74676;44.562;0.086;2023-12-20T23:06:13;3.57;;;2.17;;
76695;SDS011;74676;44.562;0.086;2023-12-20T23:11:46;1.40;;;1.17;;
76695;SDS011;74676;44.562;0.086;2023-12-20T23:17:18;3.00;;;1.13;;
76695;SDS011;74676;44.562;0.086;2023-12-20T23:22:51;5.77;;;1.30;;
76695;SDS011;74676;44.562;0.086;2023-12-20T23:28:25;6.53;;;1.57;;
76695;SDS011;74676;44.562;0.086;2023-12-20T23:33:57;4.40;;;0.80;;
76695;SDS011;74676;44.562;0.086;2023-12-20T23:39:31;1.57;;;1.07;;
76695;SDS011;74676;44.562;0.086;2023-12-20T23:45:04;1.33;;;1.07;;
76695;SDS011;74676;44.562;0.086;2023-12-20T23:50:37;2.10;;;0.90;;
76695;SDS011;74676;44.562;0.086;2023-12-20T23:56:09;1.83;;;0.93;;
